Time,TemperatureF,DewpointF,PressureIn,WindDirection,WindDirectionDegrees,WindSpeedMPH,WindSpeedGustMPH,Humidity,HourlyPrecipIn,Conditions,Clouds,dailyrainin,SoftwareType,DateUTC
2013-02-23 00:00:00,33.8,28.3,30.31,ENE,60,4.0,5.0,80,0.00,,OVC085,0.00,VWS V14.01,2013-02-23 05:00:00,
2013-02-23 00:05:00,33.8,28.3,30.31,ENE,60,4.0,4.0,80,0.00,,OVC085,0.00,VWS V14.01,2013-02-23 05:05:00,
2013-02-23 00:14:00,33.8,28.3,30.31,ENE,60,4.0,4.0,80,0.00,,OVC085,0.00,VWS V14.01,2013-02-23 05:14:00,
2013-02-23 00:19:00,33.8,28.3,30.31,ENE,60,4.0,4.0,80,0.00,,OVC085,0.00,VWS V14.01,2013-02-23 05:19:00,
2013-02-23 00:26:00,33.8,28.3,30.31,ENE,60,4.0,4.0,80,0.00,,OVC085,0.00,VWS V14.01,2013-02-23 05:26:00,
2013-02-23 00:32:00,33.8,28.3,30.31,ENE,60,4.0,4.0,80,0.00,,OVC085,0.00,VWS V14.01,2013-02-23 05:32:00,
2013-02-23 00:37:00,33.8,28.3,30.31,ENE,60,4.0,4.0,80,0.00,,OVC085,0.00,VWS V14.01,2013-02-23 05:37:00,
2013-02-23 00:44:00,33.8,28.3,30.31,ENE,60,4.0,4.0,80,0.00,,OVC085,0.00,VWS V14.01,2013-02-23 05:44:00,
2013-02-23 00:51:00,33.8,28.3,30.31,ENE,60,4.0,4.0,80,0.00,,OVC085,0.00,VWS V14.01,2013-02-23 05:51:00,
2013-02-23 00:56:00,33.8,28.3,30.31,ENE,60,4.0,4.0,80,0.00,,OVC085,0.00,VWS V14.01,2013-02-23 05:56:00,
2013-02-23 01:01:00,33.8,28.3,30.31,East,80,4.0,4.0,80,0.00,,OVC070,0.00,VWS V14.01,2013-02-23 06:01:00,
2013-02-23 01:09:00,33.8,28.3,30.31,East,80,4.0,4.0,80,0.00,,OVC070,0.00,VWS V14.01,2013-02-23 06:09:00,
2013-02-23 01:28:00,33.8,28.3,30.31,East,80,4.0,4.0,80,0.00,,OVC070,0.00,VWS V14.01,2013-02-23 06:28:00,
2013-02-23 01:34:00,33.8,28.3,30.31,East,80,4.0,4.0,80,0.00,,OVC070,0.00,VWS V14.01,2013-02-23 06:34:00,
2013-02-23 01:42:00,33.8,28.3,30.31,East,80,4.0,4.0,80,0.00,,OVC070,0.00,VWS V14.01,2013-02-23 06:42:00,
2013-02-23 01:47:00,33.8,28.3,30.31,East,80,4.0,4.0,80,0.00,,OVC070,0.00,VWS V14.01,2013-02-23 06:47:00,
2013-02-23 01:52:00,33.8,28.3,30.31,East,80,4.0,4.0,80,0.00,,OVC070,0.00,VWS V14.01,2013-02-23 06:52:00,
2013-02-23 01:56:00,33.8,28.3,30.29,ENE,70,5.0,5.0,80,0.00,,OVC060,0.00,VWS V14.01,2013-02-23 06:56:00,
2013-02-23 01:57:00,33.8,28.3,30.31,East,80,4.0,4.0,80,0.00,,OVC070,0.00,VWS V14.01,2013-02-23 06:57:00,
2013-02-23 02:02:00,33.8,28.3,30.29,ENE,70,5.0,5.0,80,0.00,,OVC060,0.00,VWS V14.01,2013-02-23 07:02:00,
2013-02-23 02:07:00,33.8,28.3,30.29,ENE,70,5.0,5.0,80,0.00,,OVC060,0.00,VWS V14.01,2013-02-23 07:07:00,
2013-02-23 02:12:00,33.8,28.3,30.29,ENE,70,5.0,5.0,80,0.00,,OVC060,0.00,VWS V14.01,2013-02-23 07:12:00,
2013-02-23 02:23:00,33.8,28.3,30.29,ENE,70,5.0,5.0,80,0.00,,OVC060,0.00,VWS V14.01,2013-02-23 07:23:00,
2013-02-23 02:28:00,33.8,28.3,30.29,ENE,70,5.0,5.0,80,0.00,,OVC060,0.00,VWS V14.01,2013-02-23 07:28:00,
2013-02-23 02:33:00,33.8,28.3,30.29,ENE,70,5.0,5.0,80,0.00,,OVC060,0.00,VWS V14.01,2013-02-23 07:33:00,
2013-02-23 02:38:00,33.8,28.3,30.29,ENE,70,5.0,5.0,80,0.00,,OVC060,0.00,VWS V14.01,2013-02-23 07:38:00,
2013-02-23 02:43:00,33.8,28.3,30.29,ENE,70,5.0,5.0,80,0.00,,OVC060,0.00,VWS V14.01,2013-02-23 07:43:00,
2013-02-23 02:49:00,33.8,28.3,30.29,ENE,70,5.0,5.0,80,0.00,,OVC060,0.00,VWS V14.01,2013-02-23 07:49:00,
2013-02-23 02:54:00,33.8,28.3,30.29,ENE,70,5.0,5.0,80,0.00,,OVC060,0.00,VWS V14.01,2013-02-23 07:54:00,
2013-02-23 02:56:00,35.6,30.0,30.27,ENE,70,4.0,4.0,80,0.00,,OVC040,0.00,VWS V14.01,2013-02-23 07:56:00,
2013-02-23 02:59:00,33.8,28.3,30.29,ENE,70,5.0,5.0,80,0.00,,OVC060,0.00,VWS V14.01,2013-02-23 07:59:00,
2013-02-23 03:04:00,35.6,30.0,30.27,ENE,70,4.0,4.0,80,0.00,,OVC040,0.00,VWS V14.01,2013-02-23 08:04:00,
2013-02-23 03:10:00,35.6,30.0,30.27,ENE,70,4.0,4.0,80,0.00,,OVC040,0.00,VWS V14.01,2013-02-23 08:10:00,
2013-02-23 03:17:00,35.6,30.0,30.27,ENE,70,4.0,4.0,80,0.00,,OVC040,0.00,VWS V14.01,2013-02-23 08:17:00,
2013-02-23 03:22:00,35.6,30.0,30.27,ENE,70,4.0,4.0,80,0.00,,OVC040,0.00,VWS V14.01,2013-02-23 08:22:00,
2013-02-23 03:27:00,35.6,30.0,30.27,ENE,70,4.0,4.0,80,0.00,,OVC040,0.00,VWS V14.01,2013-02-23 08:27:00,
2013-02-23 03:38:00,35.6,30.0,30.27,ENE,70,4.0,4.0,80,0.00,,OVC040,0.00,VWS V14.01,2013-02-23 08:38:00,
2013-02-23 03:43:00,35.6,30.0,30.27,ENE,70,4.0,4.0,80,0.00,,OVC040,0.00,VWS V14.01,2013-02-23 08:43:00,
2013-02-23 03:48:00,35.6,30.0,30.27,ENE,70,4.0,4.0,80,0.00,,OVC040,0.00,VWS V14.01,2013-02-23 08:48:00,
2013-02-23 03:53:00,35.6,30.0,30.27,ENE,70,4.0,4.0,80,0.00,,OVC040,0.00,VWS V14.01,2013-02-23 08:53:00,
2013-02-23 03:56:00,35.6,32.1,30.25,ESE,110,6.0,6.0,87,0.00,,OVC038,0.00,VWS V14.01,2013-02-23 08:56:00,
2013-02-23 03:58:00,35.6,30.0,30.27,ENE,70,4.0,4.0,80,0.00,,OVC040,0.00,VWS V14.01,2013-02-23 08:58:00,
2013-02-23 04:03:00,35.6,32.1,30.25,ESE,110,6.0,6.0,87,0.00,,OVC038,0.00,VWS V14.01,2013-02-23 09:03:00,
2013-02-23 04:08:00,35.6,32.1,30.25,ESE,110,6.0,6.0,87,0.00,,OVC038,0.00,VWS V14.01,2013-02-23 09:08:00,
2013-02-23 04:16:00,35.6,32.1,30.25,ESE,110,6.0,6.0,87,0.00,,OVC038,0.00,VWS V14.01,2013-02-23 09:16:00,
2013-02-23 04:23:00,35.6,32.1,30.25,ESE,110,6.0,6.0,87,0.00,,OVC038,0.00,VWS V14.01,2013-02-23 09:23:00,
2013-02-23 04:31:00,35.6,32.1,30.25,ESE,110,6.0,6.0,87,0.00,,OVC038,0.00,VWS V14.01,2013-02-23 09:31:00,
2013-02-23 04:38:00,35.6,32.1,30.25,ESE,110,6.0,6.0,87,0.00,,OVC038,0.00,VWS V14.01,2013-02-23 09:38:00,
2013-02-23 04:44:00,35.6,32.1,30.25,ESE,110,6.0,6.0,87,0.00,,OVC038,0.00,VWS V14.01,2013-02-23 09:44:00,
2013-02-23 04:50:00,35.6,32.1,30.25,ESE,110,6.0,6.0,87,0.00,,OVC038,0.00,VWS V14.01,2013-02-23 09:50:00,
2013-02-23 04:55:00,35.6,32.1,30.25,ESE,110,6.0,6.0,87,0.00,,OVC038,0.00,VWS V14.01,2013-02-23 09:55:00,
2013-02-23 04:56:00,35.6,33.8,30.24,East,100,9.0,9.0,93,0.00,,OVC042,0.00,VWS V14.01,2013-02-23 09:56:00,
2013-02-23 05:00:00,35.6,33.8,30.24,East,100,9.0,9.0,93,0.00,,OVC042,0.00,VWS V14.01,2013-02-23 10:00:00,
2013-02-23 05:05:00,35.6,33.8,30.24,East,100,9.0,9.0,93,0.00,,OVC042,0.00,VWS V14.01,2013-02-23 10:05:00,
2013-02-23 05:13:00,35.6,33.8,30.24,East,100,9.0,9.0,93,0.00,,OVC042,0.00,VWS V14.01,2013-02-23 10:13:00,
2013-02-23 05:18:00,35.6,33.8,30.24,East,100,9.0,9.0,93,0.00,,OVC042,0.00,VWS V14.01,2013-02-23 10:18:00,
2013-02-23 05:23:00,35.6,33.8,30.24,East,100,9.0,9.0,93,0.00,,OVC042,0.00,VWS V14.01,2013-02-23 10:23:00,
2013-02-23 05:31:00,35.6,33.8,30.24,East,100,9.0,9.0,93,0.00,,OVC042,0.00,VWS V14.01,2013-02-23 10:31:00,
2013-02-23 05:36:00,35.6,33.8,30.24,East,100,9.0,9.0,93,0.00,,OVC042,0.00,VWS V14.01,2013-02-23 10:36:00,
2013-02-23 05:42:00,35.6,33.8,30.24,East,100,9.0,9.0,93,0.00,,OVC042,0.00,VWS V14.01,2013-02-23 10:42:00,
2013-02-23 05:47:00,35.6,33.8,30.24,East,100,9.0,9.0,93,0.00,,OVC042,0.00,VWS V14.01,2013-02-23 10:47:00,
2013-02-23 05:52:00,35.6,33.8,30.24,East,100,9.0,9.0,93,0.00,,OVC042,0.00,VWS V14.01,2013-02-23 10:52:00,
2013-02-23 05:56:00,37.4,33.9,30.22,ESE,110,10.0,10.0,87,0.00,,OVC031,0.00,VWS V14.01,2013-02-23 10:56:00,
2013-02-23 05:57:00,35.6,33.8,30.24,East,100,9.0,9.0,93,0.00,,OVC042,0.00,VWS V14.01,2013-02-23 10:57:00,
2013-02-23 06:02:00,37.4,33.9,30.22,ESE,110,10.0,10.0,87,0.00,,OVC031,0.00,VWS V14.01,2013-02-23 11:02:00,
2013-02-23 06:07:00,37.4,33.9,30.22,ESE,110,10.0,10.0,87,0.00,,OVC031,0.00,VWS V14.01,2013-02-23 11:07:00,
2013-02-23 06:13:00,37.4,33.9,30.22,ESE,110,10.0,10.0,87,0.00,,OVC031,0.00,VWS V14.01,2013-02-23 11:13:00,
2013-02-23 06:19:00,37.4,33.9,30.22,ESE,110,10.0,10.0,87,0.00,,OVC031,0.00,VWS V14.01,2013-02-23 11:19:00,
2013-02-23 06:25:00,37.4,33.9,30.22,ESE,110,10.0,10.0,87,0.00,,OVC031,0.00,VWS V14.01,2013-02-23 11:25:00,
2013-02-23 06:30:00,37.4,33.9,30.22,ESE,110,10.0,10.0,87,0.00,,OVC031,0.00,VWS V14.01,2013-02-23 11:30:00,
2013-02-23 06:35:00,37.4,33.9,30.22,ESE,110,10.0,10.0,87,0.00,,OVC031,0.00,VWS V14.01,2013-02-23 11:35:00,
2013-02-23 06:41:00,37.4,33.9,30.22,ESE,110,10.0,10.0,87,0.00,,OVC031,0.00,VWS V14.01,2013-02-23 11:41:00,
2013-02-23 06:46:00,37.4,35.6,30.22,ESE,110,9.0,9.0,93,0.00,,OVC029,0.00,VWS V14.01,2013-02-23 11:46:00,
2013-02-23 06:53:00,37.4,35.6,30.22,ESE,110,9.0,9.0,93,0.00,,OVC029,0.00,VWS V14.01,2013-02-23 11:53:00,
2013-02-23 06:56:00,37.4,35.6,30.22,ESE,110,9.0,9.0,93,0.00,,OVC029,0.00,VWS V14.01,2013-02-23 11:56:00,
2013-02-23 06:58:00,37.4,35.6,30.22,ESE,110,9.0,9.0,93,0.00,,OVC029,0.00,VWS V14.01,2013-02-23 11:58:00,
2013-02-23 07:03:00,37.4,35.6,30.22,ESE,110,9.0,9.0,93,0.00,,OVC029,0.00,VWS V14.01,2013-02-23 12:03:00,
2013-02-23 07:08:00,37.4,35.6,30.22,ESE,110,9.0,9.0,93,0.00,,OVC029,0.00,VWS V14.01,2013-02-23 12:08:00,
2013-02-23 07:16:00,37.4,35.6,30.22,ESE,110,9.0,9.0,93,0.00,,OVC029,0.00,VWS V14.01,2013-02-23 12:16:00,
2013-02-23 07:21:00,37.4,35.6,30.22,ESE,110,9.0,9.0,93,0.00,,OVC029,0.00,VWS V14.01,2013-02-23 12:21:00,
2013-02-23 07:28:00,37.4,35.6,30.22,ESE,110,9.0,9.0,93,0.00,,OVC029,0.00,VWS V14.01,2013-02-23 12:28:00,
2013-02-23 07:34:00,37.4,35.6,30.22,ESE,110,9.0,9.0,93,0.00,,OVC029,0.00,VWS V14.01,2013-02-23 12:34:00,
2013-02-23 07:39:00,37.4,35.6,30.22,ESE,110,9.0,9.0,93,0.00,,OVC029,0.00,VWS V14.01,2013-02-23 12:39:00,
2013-02-23 07:48:00,37.4,35.6,30.22,ESE,110,9.0,9.0,93,0.00,,OVC029,0.00,VWS V14.01,2013-02-23 12:48:00,
2013-02-23 07:53:00,37.4,35.6,30.22,ESE,110,9.0,9.0,93,0.00,,OVC029,0.00,VWS V14.01,2013-02-23 12:53:00,
2013-02-23 07:56:00,37.4,35.6,30.22,ESE,110,12.0,12.0,93,0.00,,OVC025,0.00,VWS V14.01,2013-02-23 12:56:00,
2013-02-23 07:58:00,37.4,35.6,30.22,ESE,110,9.0,9.0,93,0.00,,OVC029,0.00,VWS V14.01,2013-02-23 12:58:00,
2013-02-23 08:03:00,37.4,35.6,30.22,ESE,110,12.0,12.0,93,0.00,,OVC025,0.00,VWS V14.01,2013-02-23 13:03:00,
2013-02-23 08:08:00,37.4,35.6,30.22,ESE,110,12.0,12.0,93,0.00,,OVC025,0.00,VWS V14.01,2013-02-23 13:08:00,
2013-02-23 08:17:00,37.4,35.6,30.22,ESE,110,12.0,12.0,93,0.00,,OVC025,0.00,VWS V14.01,2013-02-23 13:17:00,
2013-02-23 08:22:00,37.4,35.6,30.22,ESE,110,12.0,12.0,93,0.00,,OVC025,0.00,VWS V14.01,2013-02-23 13:22:00,
2013-02-23 08:27:00,37.4,35.6,30.22,ESE,110,12.0,12.0,93,0.00,,OVC025,0.00,VWS V14.01,2013-02-23 13:27:00,
2013-02-23 08:35:00,37.4,35.6,30.22,ESE,110,12.0,12.0,93,0.00,,OVC025,0.00,VWS V14.01,2013-02-23 13:35:00,
2013-02-23 08:41:00,37.4,35.6,30.22,ESE,110,12.0,12.0,93,0.00,,OVC025,0.00,VWS V14.01,2013-02-23 13:41:00,
2013-02-23 08:46:00,37.4,35.6,30.22,ESE,110,12.0,12.0,93,0.00,,OVC025,0.00,VWS V14.01,2013-02-23 13:46:00,
2013-02-23 08:52:00,37.4,35.6,30.22,ESE,110,12.0,12.0,93,0.00,,OVC025,0.00,VWS V14.01,2013-02-23 13:52:00,
2013-02-23 08:56:00,37.4,35.6,30.19,ESE,120,12.0,12.0,93,0.00,,OVC025,0.00,VWS V14.01,2013-02-23 13:56:00,
2013-02-23 08:57:00,37.4,35.6,30.22,ESE,110,12.0,12.0,93,0.00,,OVC025,0.00,VWS V14.01,2013-02-23 13:57:00,
2013-02-23 09:02:00,37.4,35.6,30.19,ESE,120,12.0,12.0,93,0.00,,OVC025,0.00,VWS V14.01,2013-02-23 14:02:00,
2013-02-23 09:08:00,37.4,35.6,30.19,ESE,120,12.0,12.0,93,0.00,,OVC025,0.00,VWS V14.01,2013-02-23 14:08:00,
2013-02-23 09:13:00,37.4,35.6,30.19,ESE,120,12.0,12.0,93,0.00,,OVC025,0.00,VWS V14.01,2013-02-23 14:13:00,
2013-02-23 09:25:00,37.4,35.6,30.19,ESE,120,12.0,12.0,93,0.00,,OVC025,0.00,VWS V14.01,2013-02-23 14:25:00,
2013-02-23 09:30:00,37.4,35.6,30.19,ESE,120,12.0,12.0,93,0.00,,OVC025,0.00,VWS V14.01,2013-02-23 14:30:00,
2013-02-23 09:35:00,37.4,35.6,30.19,ESE,120,12.0,12.0,93,0.00,,OVC025,0.00,VWS V14.01,2013-02-23 14:35:00,
2013-02-23 09:43:00,37.4,35.6,30.19,ESE,120,12.0,12.0,93,0.00,,OVC025,0.00,VWS V14.01,2013-02-23 14:43:00,
2013-02-23 09:50:00,37.4,35.6,30.19,ESE,120,12.0,12.0,93,0.00,,OVC025,0.00,VWS V14.01,2013-02-23 14:50:00,
2013-02-23 09:55:00,37.4,35.6,30.19,ESE,120,12.0,12.0,93,0.00,,OVC025,0.00,VWS V14.01,2013-02-23 14:55:00,
2013-02-23 09:56:00,39.2,35.7,30.18,ESE,110,12.0,12.0,87,0.00,,OVC015,0.00,VWS V14.01,2013-02-23 14:56:00,
2013-02-23 10:00:00,39.2,35.7,30.18,ESE,110,12.0,12.0,87,0.00,,OVC015,0.00,VWS V14.01,2013-02-23 15:00:00,
2013-02-23 10:05:00,39.2,35.7,30.18,ESE,110,12.0,12.0,87,0.00,,OVC015,0.00,VWS V14.01,2013-02-23 15:05:00,
2013-02-23 10:11:00,39.2,35.7,30.18,ESE,110,12.0,12.0,87,0.00,,OVC015,0.00,VWS V14.01,2013-02-23 15:11:00,
2013-02-23 10:20:00,39.2,35.7,30.18,ESE,110,12.0,12.0,87,0.00,,OVC015,0.00,VWS V14.01,2013-02-23 15:20:00,
2013-02-23 10:29:00,39.2,35.7,30.18,ESE,110,12.0,12.0,87,0.00,,OVC015,0.00,VWS V14.01,2013-02-23 15:29:00,
2013-02-23 10:35:00,39.2,35.7,30.18,ESE,110,12.0,12.0,87,0.00,,OVC015,0.00,VWS V14.01,2013-02-23 15:35:00,
2013-02-23 10:47:00,39.2,35.7,30.18,ESE,110,12.0,12.0,87,0.00,,OVC015,0.00,VWS V14.01,2013-02-23 15:47:00,
2013-02-23 10:52:00,39.2,35.7,30.18,ESE,110,12.0,12.0,87,0.00,,OVC015,0.00,VWS V14.01,2013-02-23 15:52:00,
2013-02-23 10:56:00,39.2,37.3,30.15,ESE,110,14.0,14.0,93,0.00,,OVC027,0.00,VWS V14.01,2013-02-23 15:56:00,
2013-02-23 10:57:00,39.2,35.7,30.18,ESE,110,12.0,12.0,87,0.00,,OVC015,0.00,VWS V14.01,2013-02-23 15:57:00,
2013-02-23 11:02:00,39.2,37.3,30.15,ESE,110,14.0,14.0,93,0.00,,OVC027,0.00,VWS V14.01,2013-02-23 16:02:00,
2013-02-23 11:07:00,39.2,37.3,30.15,ESE,110,14.0,14.0,93,0.00,,OVC027,0.00,VWS V14.01,2013-02-23 16:07:00,
2013-02-23 11:12:00,39.2,37.3,30.15,ESE,110,14.0,14.0,93,0.00,,OVC027,0.00,VWS V14.01,2013-02-23 16:12:00,
2013-02-23 11:18:00,39.2,37.3,30.15,ESE,110,14.0,14.0,93,0.00,,OVC027,0.00,VWS V14.01,2013-02-23 16:18:00,
2013-02-23 11:25:00,39.2,37.3,30.15,ESE,110,14.0,14.0,93,0.00,,OVC027,0.00,VWS V14.01,2013-02-23 16:25:00,
2013-02-23 11:34:00,39.2,37.3,30.15,ESE,110,14.0,14.0,93,0.00,,OVC027,0.00,VWS V14.01,2013-02-23 16:34:00,
2013-02-23 11:39:00,39.2,37.3,30.15,ESE,110,14.0,14.0,93,0.00,,OVC027,0.00,VWS V14.01,2013-02-23 16:39:00,
2013-02-23 11:47:00,39.2,37.3,30.15,ESE,110,14.0,14.0,93,0.00,,OVC027,0.00,VWS V14.01,2013-02-23 16:47:00,
2013-02-23 11:52:00,39.2,37.3,30.15,ESE,110,14.0,14.0,93,0.00,,OVC027,0.00,VWS V14.01,2013-02-23 16:52:00,
2013-02-23 11:56:00,39.2,35.7,30.14,ESE,110,12.0,12.0,87,0.00,,OVC027,0.00,VWS V14.01,2013-02-23 16:56:00,
2013-02-23 11:57:00,39.2,37.3,30.15,ESE,110,14.0,14.0,93,0.00,,OVC027,0.00,VWS V14.01,2013-02-23 16:57:00,
2013-02-23 12:02:00,39.2,35.7,30.14,ESE,110,12.0,12.0,87,0.00,,OVC027,0.00,VWS V14.01,2013-02-23 17:02:00,
2013-02-23 12:09:00,39.2,35.7,30.14,ESE,110,12.0,12.0,87,0.00,,OVC027,0.00,VWS V14.01,2013-02-23 17:09:00,
2013-02-23 12:14:00,39.2,35.7,30.14,ESE,110,12.0,12.0,87,0.00,,OVC027,0.00,VWS V14.01,2013-02-23 17:14:00,
2013-02-23 12:23:00,39.2,35.7,30.14,ESE,110,12.0,12.0,87,0.00,,OVC027,0.00,VWS V14.01,2013-02-23 17:23:00,
2013-02-23 12:29:00,39.2,35.7,30.14,ESE,110,12.0,12.0,87,0.00,,OVC027,0.00,VWS V14.01,2013-02-23 17:29:00,
2013-02-23 12:37:00,39.2,35.7,30.14,ESE,110,12.0,12.0,87,0.00,,OVC027,0.00,VWS V14.01,2013-02-23 17:37:00,
2013-02-23 12:44:00,39.2,35.7,30.14,ESE,110,12.0,12.0,87,0.00,,OVC027,0.00,VWS V14.01,2013-02-23 17:44:00,
2013-02-23 12:51:00,39.2,35.7,30.14,ESE,110,12.0,12.0,87,0.00,,OVC027,0.00,VWS V14.01,2013-02-23 17:51:00,
2013-02-23 12:56:00,39.2,35.7,30.14,ESE,110,12.0,12.0,87,0.00,,OVC027,0.00,VWS V14.01,2013-02-23 17:56:00,
2013-02-23 13:01:00,39.2,35.7,30.11,ESE,120,14.0,14.0,87,0.00,,OVC029,0.00,VWS V14.01,2013-02-23 18:01:00,
2013-02-23 13:06:00,39.2,35.7,30.11,ESE,120,14.0,14.0,87,0.00,,OVC029,0.00,VWS V14.01,2013-02-23 18:06:00,
2013-02-23 13:13:00,39.2,35.7,30.11,ESE,120,14.0,14.0,87,0.00,,OVC029,0.00,VWS V14.01,2013-02-23 18:13:00,
2013-02-23 13:18:00,39.2,35.7,30.11,ESE,120,14.0,14.0,87,0.00,,OVC029,0.00,VWS V14.01,2013-02-23 18:18:00,
2013-02-23 13:22:00,39.2,35.7,30.09,ESE,110,13.0,13.0,87,0.00,,OVC031,0.00,VWS V14.01,2013-02-23 18:22:00,
2013-02-23 13:25:00,39.2,35.7,30.11,ESE,120,14.0,14.0,87,0.00,,OVC029,0.00,VWS V14.01,2013-02-23 18:25:00,
2013-02-23 13:30:00,39.2,35.7,30.09,ESE,110,13.0,13.0,87,0.00,,OVC031,0.00,VWS V14.01,2013-02-23 18:30:00,
2013-02-23 13:37:00,39.2,35.7,30.09,ESE,110,13.0,13.0,87,0.00,,OVC031,0.00,VWS V14.01,2013-02-23 18:37:00,
2013-02-23 13:42:00,39.2,35.7,30.09,ESE,110,13.0,13.0,87,0.00,,OVC031,0.00,VWS V14.01,2013-02-23 18:42:00,
2013-02-23 13:47:00,39.2,35.7,30.08,ESE,110,13.0,13.0,87,0.00,,OVC031,0.00,VWS V14.01,2013-02-23 18:47:00,
2013-02-23 13:52:00,39.2,35.7,30.08,ESE,110,13.0,13.0,87,0.00,,OVC031,0.00,VWS V14.01,2013-02-23 18:52:00,
2013-02-23 13:56:00,39.2,35.7,30.08,East,100,13.0,13.0,87,0.00,,OVC035,0.00,VWS V14.01,2013-02-23 18:56:00,
2013-02-23 13:57:00,39.2,35.7,30.08,ESE,110,13.0,13.0,87,0.00,,OVC031,0.00,VWS V14.01,2013-02-23 18:57:00,
2013-02-23 14:02:00,39.2,35.7,30.08,East,100,13.0,13.0,87,0.00,,OVC035,0.00,VWS V14.01,2013-02-23 19:02:00,
2013-02-23 14:07:00,39.2,35.7,30.08,East,100,13.0,13.0,87,0.00,,OVC035,0.00,VWS V14.01,2013-02-23 19:07:00,
2013-02-23 14:14:00,39.2,35.7,30.08,East,100,13.0,13.0,87,0.00,,OVC035,0.00,VWS V14.01,2013-02-23 19:14:00,
2013-02-23 14:19:00,39.2,35.7,30.08,East,100,13.0,13.0,87,0.00,,OVC035,0.00,VWS V14.01,2013-02-23 19:19:00,
2013-02-23 14:27:00,39.2,35.7,30.08,East,100,13.0,13.0,87,0.00,,OVC035,0.00,VWS V14.01,2013-02-23 19:27:00,
2013-02-23 14:32:00,39.2,35.7,30.08,East,100,13.0,13.0,87,0.00,,OVC035,0.00,VWS V14.01,2013-02-23 19:32:00,
2013-02-23 14:38:00,39.2,35.7,30.08,East,100,13.0,13.0,87,0.00,,OVC035,0.00,VWS V14.01,2013-02-23 19:38:00,
2013-02-23 14:43:00,39.2,35.7,30.08,East,100,13.0,13.0,87,0.00,,OVC035,0.00,VWS V14.01,2013-02-23 19:43:00,
2013-02-23 14:48:00,39.2,35.7,30.08,East,100,13.0,13.0,87,0.00,,OVC035,0.00,VWS V14.01,2013-02-23 19:48:00,
2013-02-23 14:53:00,39.2,35.7,30.08,East,100,13.0,13.0,87,0.00,,OVC035,0.00,VWS V14.01,2013-02-23 19:53:00,
2013-02-23 14:56:00,37.4,37.4,30.06,East,90,13.0,13.0,100,0.00,,OVC033,0.00,VWS V14.01,2013-02-23 19:56:00,
2013-02-23 14:58:00,39.2,35.7,30.08,East,100,13.0,13.0,87,0.00,,OVC035,0.00,VWS V14.01,2013-02-23 19:58:00,
2013-02-23 15:03:00,37.4,37.4,30.06,East,90,13.0,13.0,100,0.00,,OVC033,0.00,VWS V14.01,2013-02-23 20:03:00,
2013-02-23 15:08:00,37.4,37.4,30.06,East,90,13.0,13.0,100,0.00,,OVC033,0.00,VWS V14.01,2013-02-23 20:08:00,
2013-02-23 15:15:00,37.4,37.4,30.06,East,90,13.0,13.0,100,0.00,,OVC033,0.00,VWS V14.01,2013-02-23 20:15:00,
2013-02-23 15:22:00,37.4,37.4,30.06,East,90,13.0,13.0,100,0.00,,OVC033,0.00,VWS V14.01,2013-02-23 20:22:00,
2013-02-23 15:27:00,37.4,37.4,30.06,East,90,13.0,13.0,100,0.00,,OVC033,0.00,VWS V14.01,2013-02-23 20:27:00,
2013-02-23 15:34:00,37.4,37.4,30.06,East,90,13.0,13.0,100,0.00,,OVC033,0.00,VWS V14.01,2013-02-23 20:34:00,
2013-02-23 15:39:00,37.4,37.4,30.06,East,90,13.0,13.0,100,0.00,,OVC033,0.00,VWS V14.01,2013-02-23 20:39:00,
2013-02-23 15:40:00,37.4,37.4,30.05,East,90,12.0,12.0,100,0.00,,-RA,0.00,VWS V14.01,2013-02-23 20:40:00,
2013-02-23 15:44:00,37.4,37.4,30.05,East,90,12.0,13.0,100,0.00,,-RA,0.00,VWS V14.01,2013-02-23 20:44:00,
2013-02-23 15:49:00,37.4,37.4,30.05,East,90,12.0,12.0,100,0.00,,-RA,0.00,VWS V14.01,2013-02-23 20:49:00,
2013-02-23 15:56:00,37.4,37.4,30.05,East,90,12.0,12.0,100,0.00,,-RA,0.00,VWS V14.01,2013-02-23 20:56:00,
2013-02-23 16:01:00,37.4,37.4,30.05,East,90,14.0,14.0,100,0.01,,-RA,0.01,VWS V14.01,2013-02-23 21:01:00,
2013-02-23 16:06:00,37.4,37.4,30.05,East,90,14.0,14.0,100,0.01,,-RA,0.01,VWS V14.01,2013-02-23 21:06:00,
2013-02-23 16:12:00,37.4,37.4,30.05,East,90,14.0,14.0,100,0.01,,-RA,0.01,VWS V14.01,2013-02-23 21:12:00,
2013-02-23 16:17:00,37.4,37.4,30.05,East,90,14.0,14.0,100,0.01,,-RA,0.01,VWS V14.01,2013-02-23 21:17:00,
2013-02-23 16:25:00,37.4,37.4,30.05,East,90,14.0,14.0,100,0.01,,-RA,0.01,VWS V14.01,2013-02-23 21:25:00,
2013-02-23 16:30:00,37.4,37.4,30.05,East,90,14.0,14.0,100,0.01,,-RA,0.01,VWS V14.01,2013-02-23 21:30:00,
2013-02-23 16:35:00,37.4,37.4,30.05,East,90,14.0,14.0,100,0.01,,-RA,0.01,VWS V14.01,2013-02-23 21:35:00,
2013-02-23 16:41:00,37.4,37.4,30.05,East,90,14.0,14.0,100,0.01,,-RA,0.01,VWS V14.01,2013-02-23 21:41:00,
2013-02-23 16:47:00,37.4,37.4,30.05,East,90,14.0,14.0,100,0.01,,-RA,0.01,VWS V14.01,2013-02-23 21:47:00,
2013-02-23 16:52:00,37.4,37.4,30.05,East,90,14.0,14.0,100,0.01,,-RA,0.01,VWS V14.01,2013-02-23 21:52:00,
2013-02-23 16:56:00,37.4,35.6,30.02,East,80,12.0,12.0,93,0.00,,-RA,0.00,VWS V14.01,2013-02-23 21:56:00,
2013-02-23 16:57:00,37.4,37.4,30.05,East,90,14.0,14.0,100,0.01,,-RA,0.01,VWS V14.01,2013-02-23 21:57:00,
2013-02-23 17:02:00,37.4,35.6,30.02,East,80,12.0,12.0,93,0.00,,-RA,0.00,VWS V14.01,2013-02-23 22:02:00,
2013-02-23 17:07:00,37.4,35.6,30.02,East,80,12.0,12.0,93,0.00,,-RA,0.00,VWS V14.01,2013-02-23 22:07:00,
2013-02-23 17:13:00,37.4,35.6,30.02,East,80,12.0,12.0,93,0.00,,-RA,0.00,VWS V14.01,2013-02-23 22:13:00,
2013-02-23 17:20:00,37.4,35.6,30.02,East,80,12.0,12.0,93,0.00,,-RA,0.00,VWS V14.01,2013-02-23 22:20:00,
2013-02-23 17:24:00,35.6,35.6,30.02,East,80,10.0,10.0,100,0.00,,-RA,0.00,VWS V14.01,2013-02-23 22:24:00,
2013-02-23 17:27:00,37.4,35.6,30.02,East,80,12.0,12.0,93,0.00,,-RA,0.00,VWS V14.01,2013-02-23 22:27:00,
2013-02-23 17:32:00,35.6,35.6,30.02,East,80,10.0,10.0,100,0.00,,-RA,0.00,VWS V14.01,2013-02-23 22:32:00,
2013-02-23 17:43:00,35.6,35.6,30.02,East,80,10.0,10.0,100,0.00,,-RA,0.00,VWS V14.01,2013-02-23 22:43:00,
2013-02-23 17:48:00,35.6,35.6,30.02,East,80,10.0,10.0,100,0.00,,-RA,0.00,VWS V14.01,2013-02-23 22:48:00,
2013-02-23 17:56:00,35.6,35.6,30.01,ENE,60,12.0,12.0,100,0.00,,-RA,0.00,VWS V14.01,2013-02-23 22:56:00,
2013-02-23 17:58:00,35.6,35.6,30.02,East,80,10.0,10.0,100,0.00,,-RA,0.00,VWS V14.01,2013-02-23 22:58:00,
2013-02-23 18:03:00,35.6,35.6,30.01,ENE,60,12.0,12.0,100,0.00,,-RA,0.00,VWS V14.01,2013-02-23 23:03:00,
2013-02-23 18:12:00,35.6,35.6,30.01,ENE,60,12.0,12.0,100,0.00,,-RA,0.00,VWS V14.01,2013-02-23 23:12:00,
2013-02-23 18:17:00,35.6,35.6,30.01,ENE,60,12.0,12.0,100,0.00,,-RA,0.00,VWS V14.01,2013-02-23 23:17:00,
2013-02-23 18:25:00,35.6,35.6,30.01,ENE,60,12.0,12.0,100,0.00,,-RA,0.00,VWS V14.01,2013-02-23 23:25:00,
2013-02-23 18:28:00,35.6,35.6,29.99,ENE,60,10.0,10.0,100,0.01,,-RA,0.01,VWS V14.01,2013-02-23 23:28:00,
2013-02-23 18:31:00,35.6,35.6,30.01,ENE,60,12.0,12.0,100,0.00,,-RA,0.00,VWS V14.01,2013-02-23 23:31:00,
2013-02-23 18:36:00,35.6,35.6,29.99,ENE,60,10.0,10.0,100,0.01,,-RA,0.01,VWS V14.01,2013-02-23 23:36:00,
2013-02-23 18:43:00,35.6,35.6,29.99,ENE,60,10.0,10.0,100,0.01,,-RA,0.01,VWS V14.01,2013-02-23 23:43:00,
2013-02-23 18:50:00,35.6,35.6,29.99,ENE,60,10.0,10.0,100,0.01,,-RA,0.01,VWS V14.01,2013-02-23 23:50:00,
2013-02-23 18:56:00,35.6,35.6,29.98,NE,50,13.0,13.0,100,0.01,,-RA,0.01,VWS V14.01,2013-02-23 23:56:00,
2013-02-23 18:59:00,35.6,35.6,29.99,ENE,60,10.0,10.0,100,0.01,,-RA,0.01,VWS V14.01,2013-02-23 23:59:00,
2013-02-23 19:04:00,35.6,35.6,29.98,NE,50,13.0,13.0,100,0.01,,-RA,0.01,VWS V14.01,2013-02-24 00:04:00,
2013-02-23 19:10:00,35.6,35.6,29.98,NE,50,13.0,13.0,100,0.01,,-RA,0.01,VWS V14.01,2013-02-24 00:10:00,
2013-02-23 19:16:00,35.6,35.6,29.98,NE,50,13.0,13.0,100,0.01,,-RA,0.01,VWS V14.01,2013-02-24 00:16:00,
2013-02-23 19:25:00,35.6,35.6,29.98,NE,50,13.0,13.0,100,0.01,,-RA,0.01,VWS V14.01,2013-02-24 00:25:00,
2013-02-23 19:32:00,35.6,35.6,29.98,NE,50,13.0,13.0,100,0.01,,-RA,0.01,VWS V14.01,2013-02-24 00:32:00,
2013-02-23 19:37:00,35.6,35.6,29.98,NE,50,13.0,13.0,100,0.01,,-RA,0.01,VWS V14.01,2013-02-24 00:37:00,
2013-02-23 19:42:00,35.6,35.6,29.98,NE,50,13.0,13.0,100,0.01,,-RA,0.01,VWS V14.01,2013-02-24 00:42:00,
2013-02-23 19:51:00,35.6,35.6,29.98,NE,50,13.0,13.0,100,0.01,,-RA,0.01,VWS V14.01,2013-02-24 00:51:00,
2013-02-23 19:56:00,35.6,35.6,29.98,NE,50,13.0,13.0,100,0.01,,-RA,0.01,VWS V14.01,2013-02-24 00:56:00,
2013-02-23 20:01:00,35.6,35.6,29.95,NE,50,11.0,11.0,100,0.00,,-RA,0.00,VWS V14.01,2013-02-24 01:01:00,
2013-02-23 20:07:00,35.6,35.6,29.95,NE,50,11.0,11.0,100,0.00,,-RA,0.00,VWS V14.01,2013-02-24 01:07:00,
2013-02-23 20:13:00,35.6,35.6,29.95,NE,50,11.0,11.0,100,0.00,,-RA,0.00,VWS V14.01,2013-02-24 01:13:00,
2013-02-23 20:14:00,35.6,35.6,29.95,NE,50,10.0,10.0,100,0.00,,-RA,0.00,VWS V14.01,2013-02-24 01:14:00,
2013-02-23 20:18:00,35.6,35.6,29.95,NE,50,10.0,11.0,100,0.00,,-RA,0.00,VWS V14.01,2013-02-24 01:18:00,
2013-02-23 20:23:00,35.6,35.6,29.95,NE,50,10.0,10.0,100,0.00,,-RA,0.00,VWS V14.01,2013-02-24 01:23:00,
2013-02-23 20:29:00,35.6,35.6,29.95,NE,50,10.0,10.0,100,0.00,,-RA,0.00,VWS V14.01,2013-02-24 01:29:00,
2013-02-23 20:34:00,35.6,35.6,29.95,NE,50,10.0,10.0,100,0.00,,-RA,0.00,VWS V14.01,2013-02-24 01:34:00,
2013-02-23 20:46:00,35.6,35.6,29.95,NE,50,10.0,10.0,100,0.00,,-RA,0.00,VWS V14.01,2013-02-24 01:46:00,
2013-02-23 20:51:00,35.6,35.6,29.95,NE,50,10.0,10.0,100,0.00,,-RA,0.00,VWS V14.01,2013-02-24 01:51:00,
2013-02-23 20:56:00,35.6,35.6,29.94,NE,50,12.0,12.0,100,0.00,,,0.00,VWS V14.01,2013-02-24 01:56:00,
2013-02-23 20:59:00,35.6,35.6,29.94,NE,50,12.0,12.0,100,0.00,,,0.00,VWS V14.01,2013-02-24 01:59:00,
2013-02-23 21:04:00,35.6,35.6,29.94,NE,50,12.0,12.0,100,0.00,,,0.00,VWS V14.01,2013-02-24 02:04:00,
2013-02-23 21:11:00,35.6,35.6,29.94,NE,50,12.0,12.0,100,0.00,,,0.00,VWS V14.01,2013-02-24 02:11:00,
2013-02-23 21:16:00,35.6,35.6,29.94,NE,50,12.0,12.0,100,0.00,,,0.00,VWS V14.01,2013-02-24 02:16:00,
2013-02-23 21:21:00,35.6,35.6,29.94,NE,50,12.0,12.0,100,0.00,,,0.00,VWS V14.01,2013-02-24 02:21:00,
2013-02-23 21:27:00,35.6,35.6,29.94,NE,50,12.0,12.0,100,0.00,,,0.00,VWS V14.01,2013-02-24 02:27:00,
2013-02-23 21:35:00,35.6,35.6,29.94,NE,50,12.0,12.0,100,0.00,,,0.00,VWS V14.01,2013-02-24 02:35:00,
2013-02-23 21:40:00,35.6,35.6,29.94,NE,50,12.0,12.0,100,0.00,,,0.00,VWS V14.01,2013-02-24 02:40:00,
2013-02-23 21:41:00,35.6,35.6,29.90,NE,40,13.0,13.0,100,0.00,,,0.00,VWS V14.01,2013-02-24 02:41:00,
2013-02-23 21:45:00,35.6,35.6,29.90,NE,40,13.0,13.0,100,0.00,,,0.00,VWS V14.01,2013-02-24 02:45:00,
2013-02-23 21:50:00,35.6,35.6,29.90,NE,40,13.0,13.0,100,0.00,,,0.00,VWS V14.01,2013-02-24 02:50:00,
2013-02-23 21:55:00,35.6,35.6,29.90,NE,40,13.0,13.0,100,0.00,,,0.00,VWS V14.01,2013-02-24 02:55:00,
2013-02-23 21:56:00,35.6,35.6,29.88,NE,50,13.0,13.0,100,0.00,,-RA,0.00,VWS V14.01,2013-02-24 02:56:00,
2013-02-23 22:00:00,35.6,35.6,29.88,NE,50,13.0,13.0,100,0.00,,-RA,0.00,VWS V14.01,2013-02-24 03:00:00,
2013-02-23 22:05:00,35.6,35.6,29.88,NE,50,13.0,13.0,100,0.00,,-RA,0.00,VWS V14.01,2013-02-24 03:05:00,
2013-02-23 22:10:00,35.6,35.6,29.88,NE,50,13.0,13.0,100,0.00,,-RA,0.00,VWS V14.01,2013-02-24 03:10:00,
2013-02-23 22:16:00,35.6,35.6,29.88,NE,50,13.0,13.0,100,0.00,,-RA,0.00,VWS V14.01,2013-02-24 03:16:00,
2013-02-23 22:24:00,35.6,35.6,29.88,NE,50,13.0,13.0,100,0.00,,-RA,0.00,VWS V14.01,2013-02-24 03:24:00,
2013-02-23 22:29:00,35.6,35.6,29.88,NE,50,13.0,13.0,100,0.00,,-RA,0.00,VWS V14.01,2013-02-24 03:29:00,
2013-02-23 22:37:00,35.6,35.6,29.88,NE,50,13.0,13.0,100,0.00,,-RA,0.00,VWS V14.01,2013-02-24 03:37:00,
2013-02-23 22:42:00,35.6,35.6,29.88,NE,50,13.0,13.0,100,0.00,,-RA,0.00,VWS V14.01,2013-02-24 03:42:00,
2013-02-23 22:47:00,35.6,35.6,29.88,NE,50,13.0,13.0,100,0.00,,-RA,0.00,VWS V14.01,2013-02-24 03:47:00,
2013-02-23 22:52:00,35.6,35.6,29.88,NE,50,13.0,13.0,100,0.00,,-RA,0.00,VWS V14.01,2013-02-24 03:52:00,
2013-02-23 22:56:00,37.4,37.4,29.83,NE,40,13.0,13.0,100,0.00,,-RA,0.00,VWS V14.01,2013-02-24 03:56:00,
2013-02-23 22:57:00,35.6,35.6,29.88,NE,50,13.0,13.0,100,0.00,,-RA,0.00,VWS V14.01,2013-02-24 03:57:00,
2013-02-23 23:02:00,37.4,37.4,29.83,NE,40,13.0,13.0,100,0.00,,-RA,0.00,VWS V14.01,2013-02-24 04:02:00,
2013-02-23 23:07:00,37.4,37.4,29.83,NE,40,13.0,13.0,100,0.00,,-RA,0.00,VWS V14.01,2013-02-24 04:07:00,
2013-02-23 23:10:00,37.4,37.4,29.83,NNE,20,10.0,10.0,100,0.00,,-RA,0.00,VWS V14.01,2013-02-24 04:10:00,
2013-02-23 23:12:00,37.4,37.4,29.83,NE,40,13.0,13.0,100,0.00,,-RA,0.00,VWS V14.01,2013-02-24 04:12:00,
2013-02-23 23:17:00,37.4,37.4,29.83,NNE,20,10.0,10.0,100,0.00,,-RA,0.00,VWS V14.01,2013-02-24 04:17:00,
2013-02-23 23:22:00,37.4,37.4,29.83,NNE,20,10.0,10.0,100,0.00,,-RA,0.00,VWS V14.01,2013-02-24 04:22:00,
2013-02-23 23:31:00,37.4,37.4,29.83,NNE,20,10.0,10.0,100,0.00,,-RA,0.00,VWS V14.01,2013-02-24 04:31:00,
2013-02-23 23:36:00,37.4,37.4,29.83,NNE,20,10.0,10.0,100,0.00,,-RA,0.00,VWS V14.01,2013-02-24 04:36:00,
2013-02-23 23:41:00,37.4,37.4,29.83,NNE,20,10.0,10.0,100,0.00,,-RA,0.00,VWS V14.01,2013-02-24 04:41:00,
2013-02-23 23:46:00,37.4,37.4,29.83,NNE,20,10.0,10.0,100,0.00,,-RA,0.00,VWS V14.01,2013-02-24 04:46:00,
2013-02-23 23:54:00,37.4,37.4,29.83,NNE,20,10.0,10.0,100,0.00,,-RA,0.00,VWS V14.01,2013-02-24 04:54:00,
2013-02-23 23:56:00,37.4,37.4,29.80,NNE,30,12.0,12.0,100,0.00,,,0.00,VWS V14.01,2013-02-24 04:56:00,
2013-02-23 23:59:00,37.4,37.4,29.83,NNE,20,10.0,10.0,100,0.00,,-RA,0.00,VWS V14.01,2013-02-24 04:59:00,